logo
Rechercher aéroport 
image banner adimage banner adimage banner ad
image banner ad

L78 - Jacumba

Situé à Jacumba, United States

ICAO - L78, IATA -

Données fournies par Airmate  

Information générale

Coordonnées: N32°36'57" W116°9'56"
Élévation : 2844 feet MSL.
Variation magnétique : 13° East
Voir autres Aéroports à California

Données opérationnelles

Special qualification required
Heure actuelle UTC:
Heure actuelle locale:
Météo à : KNJK - El Centro Naf ( 52 km )
METAR: KNJK 011656Z 00000KT 10SM CLR 31/22 A2978 RMK AO2 SLP100 T03060217 $
TAF: TAF KNJK 0115/0215 VRB06KT 9999 SKC QNH2962INS T38/0123Z T24/0212Z FS30199
Voir NOTAMs / SUP AIP / TFR affectant cet aéroport [VIEW]
Fréquences de communication: [VIEW]

Pistes:

Identifiant RWYQFULongueur (ft)Largeur (ft)SurfaceLDA (ft)
07256260ASPH
25256260ASPH

Coordonnées de l'aéroport

Adresse: Jacumba United States

Vue satellite de L78